sensor_id;sensor_type;location;lat;lon;timestamp;temperature;humidity
10642;DHT22;5369;49.586;8.646;2023-07-16T00:15:14;31.10;35.90
10642;DHT22;5369;49.586;8.646;2023-07-16T00:17:39;22.10;99.90
10642;DHT22;5369;49.586;8.646;2023-07-16T00:20:06;21.90;99.90
10642;DHT22;5369;49.586;8.646;2023-07-16T00:22:32;21.80;99.90
10642;DHT22;5369;49.586;8.646;2023-07-16T00:24:57;21.80;99.90
10642;DHT22;5369;49.586;8.646;2023-07-16T00:27:23;21.80;99.90
10642;DHT22;5369;49.586;8.646;2023-07-16T00:29:49;21.70;99.90
10642;DHT22;5369;49.586;8.646;2023-07-16T00:32:15;21.60;99.90
10642;DHT22;5369;49.586;8.646;2023-07-16T00:34:40;21.60;99.90
10642;DHT22;5369;49.586;8.646;2023-07-16T00:37:07;21.70;99.90
10642;DHT22;5369;49.586;8.646;2023-07-16T00:39:33;21.60;99.90
10642;DHT22;5369;49.586;8.646;2023-07-16T00:41:59;21.70;99.90
10642;DHT22;5369;49.586;8.646;2023-07-16T00:44:25;21.60;99.90
10642;DHT22;5369;49.586;8.646;2023-07-16T00:46:51;21.60;99.90
10642;DHT22;5369;49.586;8.646;2023-07-16T00:49:18;21.60;99.90
10642;DHT22;5369;49.586;8.646;2023-07-16T00:51:43;21.60;99.90
10642;DHT22;5369;49.586;8.646;2023-07-16T00:54:09;21.60;99.90
10642;DHT22;5369;49.586;8.646;2023-07-16T00:56:37;21.60;99.90
10642;DHT22;5369;49.586;8.646;2023-07-16T00:59:03;21.60;99.90
10642;DHT22;5369;49.586;8.646;2023-07-16T01:01:28;21.50;99.90
10642;DHT22;5369;49.586;8.646;2023-07-16T01:03:54;21.50;99.90
10642;DHT22;5369;49.586;8.646;2023-07-16T01:06:38;21.60;99.90
10642;DHT22;5369;49.586;8.646;2023-07-16T01:09:11;21.50;99.90
10642;DHT22;5369;49.586;8.646;2023-07-16T01:11:41;21.50;99.90
10642;DHT22;5369;49.586;8.646;2023-07-16T01:14:08;21.60;99.90
10642;DHT22;5369;49.586;8.646;2023-07-16T01:16:34;21.60;99.90
10642;DHT22;5369;49.586;8.646;2023-07-16T01:18:59;21.60;99.90
10642;DHT22;5369;49.586;8.646;2023-07-16T01:21:28;21.60;99.90
10642;DHT22;5369;49.586;8.646;2023-07-16T01:29:29;21.60;99.90
10642;DHT22;5369;49.586;8.646;2023-07-16T01:31:56;21.50;99.90
10642;DHT22;5369;49.586;8.646;2023-07-16T01:34:26;21.50;99.90
10642;DHT22;5369;49.586;8.646;2023-07-16T01:36:53;21.40;99.90
10642;DHT22;5369;49.586;8.646;2023-07-16T01:39:20;21.30;99.90
10642;DHT22;5369;49.586;8.646;2023-07-16T01:41:45;21.30;99.90
10642;DHT22;5369;49.586;8.646;2023-07-16T01:44:12;21.30;99.90
10642;DHT22;5369;49.586;8.646;2023-07-16T01:46:38;21.30;99.90
10642;DHT22;5369;49.586;8.646;2023-07-16T01:49:04;21.20;99.90
10642;DHT22;5369;49.586;8.646;2023-07-16T01:51:29;21.30;99.90
10642;DHT22;5369;49.586;8.646;2023-07-16T01:53:55;21.20;99.90
10642;DHT22;5369;49.586;8.646;2023-07-16T01:56:21;21.20;99.90
10642;DHT22;5369;49.586;8.646;2023-07-16T01:58:47;21.20;99.90
10642;DHT22;5369;49.586;8.646;2023-07-16T02:01:13;21.20;99.90
10642;DHT22;5369;49.586;8.646;2023-07-16T02:03:39;21.10;99.90
10642;DHT22;5369;49.586;8.646;2023-07-16T02:06:04;21.10;99.90
10642;DHT22;5369;49.586;8.646;2023-07-16T02:08:33;21.00;99.90
10642;DHT22;5369;49.586;8.646;2023-07-16T02:10:58;21.00;99.90
10642;DHT22;5369;49.586;8.646;2023-07-16T02:13:24;21.00;99.90
10642;DHT22;5369;49.586;8.646;2023-07-16T02:15:50;21.00;99.90
10642;DHT22;5369;49.586;8.646;2023-07-16T02:18:15;20.90;99.90
10642;DHT22;5369;49.586;8.646;2023-07-16T02:20:43;20.90;99.90
10642;DHT22;5369;49.586;8.646;2023-07-16T02:23:09;21.00;99.90
10642;DHT22;5369;49.586;8.646;2023-07-16T02:25:35;20.90;99.90
10642;DHT22;5369;49.586;8.646;2023-07-16T02:28:00;20.90;99.90
10642;DHT22;5369;49.586;8.646;2023-07-16T02:30:26;20.90;99.90
10642;DHT22;5369;49.586;8.646;2023-07-16T02:32:52;20.90;99.90
10642;DHT22;5369;49.586;8.646;2023-07-16T02:35:17;20.80;99.90
10642;DHT22;5369;49.586;8.646;2023-07-16T02:37:43;20.80;99.90
10642;DHT22;5369;49.586;8.646;2023-07-16T02:40:09;20.80;99.90
10642;DHT22;5369;49.586;8.646;2023-07-16T02:42:35;20.70;99.90
10642;DHT22;5369;49.586;8.646;2023-07-16T02:45:00;20.70;99.90
10642;DHT22;5369;49.586;8.646;2023-07-16T02:47:26;20.70;99.90
10642;DHT22;5369;49.586;8.646;2023-07-16T02:49:52;20.70;99.90
10642;DHT22;5369;49.586;8.646;2023-07-16T02:52:18;20.60;99.90
10642;DHT22;5369;49.586;8.646;2023-07-16T02:54:43;20.60;99.90
10642;DHT22;5369;49.586;8.646;2023-07-16T02:57:09;20.50;99.90
10642;DHT22;5369;49.586;8.646;2023-07-16T02:59:35;20.50;99.90
10642;DHT22;5369;49.586;8.646;2023-07-16T03:02:01;20.50;99.90
10642;DHT22;5369;49.586;8.646;2023-07-16T03:04:27;20.40;99.90
10642;DHT22;5369;49.586;8.646;2023-07-16T03:06:52;20.40;99.90
10642;DHT22;5369;49.586;8.646;2023-07-16T03:09:19;20.30;99.90
10642;DHT22;5369;49.586;8.646;2023-07-16T03:11:44;20.30;99.90
10642;DHT22;5369;49.586;8.646;2023-07-16T03:14:10;20.30;99.90
10642;DHT22;5369;49.586;8.646;2023-07-16T03:16:36;20.30;99.90
10642;DHT22;5369;49.586;8.646;2023-07-16T03:19:01;20.30;99.90
10642;DHT22;5369;49.586;8.646;2023-07-16T03:21:29;20.30;99.90
10642;DHT22;5369;49.586;8.646;2023-07-16T03:23:54;20.10;99.90
10642;DHT22;5369;49.586;8.646;2023-07-16T03:26:20;20.10;99.90
10642;DHT22;5369;49.586;8.646;2023-07-16T03:28:47;20.00;99.90
10642;DHT22;5369;49.586;8.646;2023-07-16T03:31:13;20.00;99.90
10642;DHT22;5369;49.586;8.646;2023-07-16T03:33:41;20.00;99.90
10642;DHT22;5369;49.586;8.646;2023-07-16T03:36:07;20.00;99.90
10642;DHT22;5369;49.586;8.646;2023-07-16T03:38:33;20.00;99.90
10642;DHT22;5369;49.586;8.646;2023-07-16T03:40:59;20.00;99.90
10642;DHT22;5369;49.586;8.646;2023-07-16T03:43:26;19.90;99.90
10642;DHT22;5369;49.586;8.646;2023-07-16T03:45:58;19.90;99.90
10642;DHT22;5369;49.586;8.646;2023-07-16T03:48:23;19.90;99.90
10642;DHT22;5369;49.586;8.646;2023-07-16T03:50:50;19.80;99.90
10642;DHT22;5369;49.586;8.646;2023-07-16T03:53:15;19.70;99.90
10642;DHT22;5369;49.586;8.646;2023-07-16T03:55:41;19.80;99.90
10642;DHT22;5369;49.586;8.646;2023-07-16T03:58:07;19.80;99.90
10642;DHT22;5369;49.586;8.646;2023-07-16T04:00:33;19.80;99.90
10642;DHT22;5369;49.586;8.646;2023-07-16T04:02:59;19.90;99.90
10642;DHT22;5369;49.586;8.646;2023-07-16T04:05:24;19.90;99.90
10642;DHT22;5369;49.586;8.646;2023-07-16T04:07:51;19.80;99.90
10642;DHT22;5369;49.586;8.646;2023-07-16T04:10:16;19.90;99.90
10642;DHT22;5369;49.586;8.646;2023-07-16T04:12:42;19.90;99.90
10642;DHT22;5369;49.586;8.646;2023-07-16T04:15:08;19.90;99.90
10642;DHT22;5369;49.586;8.646;2023-07-16T04:17:37;19.90;99.90
10642;DHT22;5369;49.586;8.646;2023-07-16T04:20:03;19.90;99.90
10642;DHT22;5369;49.586;8.646;2023-07-16T04:22:33;19.90;99.90
10642;DHT22;5369;49.586;8.646;2023-07-16T04:24:58;19.80;99.90
10642;DHT22;5369;49.586;8.646;2023-07-16T04:27:24;19.80;99.90
10642;DHT22;5369;49.586;8.646;2023-07-16T04:29:50;19.80;99.90
10642;DHT22;5369;49.586;8.646;2023-07-16T04:32:16;19.80;99.90
10642;DHT22;5369;49.586;8.646;2023-07-16T04:34:42;19.80;99.90
10642;DHT22;5369;49.586;8.646;2023-07-16T04:37:07;19.80;99.90
10642;DHT22;5369;49.586;8.646;2023-07-16T04:39:33;19.80;99.90
10642;DHT22;5369;49.586;8.646;2023-07-16T04:41:59;19.80;99.90
10642;DHT22;5369;49.586;8.646;2023-07-16T04:44:24;19.70;99.90
10642;DHT22;5369;49.586;8.646;2023-07-16T04:46:50;19.70;99.90
10642;DHT22;5369;49.586;8.646;2023-07-16T04:49:16;19.80;99.90
10642;DHT22;5369;49.586;8.646;2023-07-16T04:51:41;19.70;99.90
10642;DHT22;5369;49.586;8.646;2023-07-16T04:54:07;19.70;99.90
10642;DHT22;5369;49.586;8.646;2023-07-16T04:56:33;19.70;99.90
10642;DHT22;5369;49.586;8.646;2023-07-16T04:58:58;19.70;99.90
10642;DHT22;5369;49.586;8.646;2023-07-16T05:01:24;19.70;99.90
10642;DHT22;5369;49.586;8.646;2023-07-16T05:03:50;19.60;99.90
10642;DHT22;5369;49.586;8.646;2023-07-16T05:06:16;19.70;99.90
10642;DHT22;5369;49.586;8.646;2023-07-16T05:08:42;19.80;99.90
10642;DHT22;5369;49.586;8.646;2023-07-16T05:11:07;19.80;99.90
10642;DHT22;5369;49.586;8.646;2023-07-16T05:13:33;19.90;99.90
10642;DHT22;5369;49.586;8.646;2023-07-16T05:15:59;19.80;99.90
10642;DHT22;5369;49.586;8.646;2023-07-16T05:18:25;19.90;99.90
10642;DHT22;5369;49.586;8.646;2023-07-16T05:20:50;19.90;99.90
10642;DHT22;5369;49.586;8.646;2023-07-16T05:23:16;19.90;99.90
10642;DHT22;5369;49.586;8.646;2023-07-16T05:25:46;19.90;99.90
10642;DHT22;5369;49.586;8.646;2023-07-16T05:28:13;19.90;99.90
10642;DHT22;5369;49.586;8.646;2023-07-16T05:30:39;19.90;99.90
10642;DHT22;5369;49.586;8.646;2023-07-16T05:33:04;19.90;99.90
10642;DHT22;5369;49.586;8.646;2023-07-16T05:35:30;19.90;99.90
10642;DHT22;5369;49.586;8.646;2023-07-16T05:37:56;19.90;99.90
10642;DHT22;5369;49.586;8.646;2023-07-16T05:40:22;19.90;99.90
10642;DHT22;5369;49.586;8.646;2023-07-16T05:42:47;20.00;99.90
10642;DHT22;5369;49.586;8.646;2023-07-16T05:45:13;20.00;99.90
10642;DHT22;5369;49.586;8.646;2023-07-16T05:47:39;20.10;99.90
10642;DHT22;5369;49.586;8.646;2023-07-16T05:50:05;20.10;99.90
10642;DHT22;5369;49.586;8.646;2023-07-16T05:52:31;20.10;99.90
10642;DHT22;5369;49.586;8.646;2023-07-16T05:54:57;20.20;99.90
10642;DHT22;5369;49.586;8.646;2023-07-16T05:57:23;20.20;99.90
10642;DHT22;5369;49.586;8.646;2023-07-16T05:59:48;20.30;99.90
10642;DHT22;5369;49.586;8.646;2023-07-16T06:02:14;20.40;99.90
10642;DHT22;5369;49.586;8.646;2023-07-16T06:04:40;20.50;99.90
10642;DHT22;5369;49.586;8.646;2023-07-16T06:07:06;20.50;99.90
10642;DHT22;5369;49.586;8.646;2023-07-16T06:09:33;20.50;99.90
10642;DHT22;5369;49.586;8.646;2023-07-16T06:11:58;20.60;99.90
10642;DHT22;5369;49.586;8.646;2023-07-16T06:14:24;20.60;99.90
10642;DHT22;5369;49.586;8.646;2023-07-16T06:16:50;20.60;99.90
10642;DHT22;5369;49.586;8.646;2023-07-16T06:19:16;20.60;99.90
10642;DHT22;5369;49.586;8.646;2023-07-16T06:21:41;20.60;99.90
10642;DHT22;5369;49.586;8.646;2023-07-16T06:24:07;20.50;99.90
10642;DHT22;5369;49.586;8.646;2023-07-16T06:26:33;20.50;99.90
10642;DHT22;5369;49.586;8.646;2023-07-16T06:28:58;20.60;99.90
10642;DHT22;5369;49.586;8.646;2023-07-16T06:31:24;20.60;99.90
10642;DHT22;5369;49.586;8.646;2023-07-16T06:33:50;20.70;99.90
10642;DHT22;5369;49.586;8.646;2023-07-16T06:36:16;20.70;99.90
10642;DHT22;5369;49.586;8.646;2023-07-16T06:38:42;20.80;99.90
10642;DHT22;5369;49.586;8.646;2023-07-16T06:41:07;20.80;99.90
10642;DHT22;5369;49.586;8.646;2023-07-16T06:43:33;20.90;99.90
10642;DHT22;5369;49.586;8.646;2023-07-16T06:45:59;21.00;99.90
10642;DHT22;5369;49.586;8.646;2023-07-16T06:48:25;21.10;99.90
10642;DHT22;5369;49.586;8.646;2023-07-16T06:50:51;21.20;98.20
10642;DHT22;5369;49.586;8.646;2023-07-16T06:53:16;21.40;99.10
10642;DHT22;5369;49.586;8.646;2023-07-16T06:55:42;21.60;97.50
10642;DHT22;5369;49.586;8.646;2023-07-16T06:58:10;21.70;94.70
10642;DHT22;5369;49.586;8.646;2023-07-16T07:00:36;21.70;94.20
10642;DHT22;5369;49.586;8.646;2023-07-16T07:03:02;21.70;91.20
10642;DHT22;5369;49.586;8.646;2023-07-16T07:05:27;21.70;90.40
10642;DHT22;5369;49.586;8.646;2023-07-16T07:07:53;21.70;86.00
10642;DHT22;5369;49.586;8.646;2023-07-16T07:10:19;21.80;89.80
10642;DHT22;5369;49.586;8.646;2023-07-16T07:12:45;22.00;89.40
10642;DHT22;5369;49.586;8.646;2023-07-16T07:15:10;22.00;81.70
10642;DHT22;5369;49.586;8.646;2023-07-16T07:17:36;22.00;78.70
10642;DHT22;5369;49.586;8.646;2023-07-16T07:20:03;21.90;80.70
10642;DHT22;5369;49.586;8.646;2023-07-16T07:22:29;21.70;76.60
10642;DHT22;5369;49.586;8.646;2023-07-16T07:24:54;21.50;79.50
10642;DHT22;5369;49.586;8.646;2023-07-16T07:27:20;21.50;80.90
10642;DHT22;5369;49.586;8.646;2023-07-16T07:29:46;21.50;78.70
10642;DHT22;5369;49.586;8.646;2023-07-16T07:32:19;21.40;78.00
10642;DHT22;5369;49.586;8.646;2023-07-16T07:34:45;21.50;81.70
10642;DHT22;5369;49.586;8.646;2023-07-16T07:37:11;21.70;82.30
10642;DHT22;5369;49.586;8.646;2023-07-16T07:39:37;21.80;77.20
10642;DHT22;5369;49.586;8.646;2023-07-16T07:42:03;21.70;75.20
10642;DHT22;5369;49.586;8.646;2023-07-16T07:44:28;21.70;74.40
10642;DHT22;5369;49.586;8.646;2023-07-16T07:46:54;21.80;72.90
10642;DHT22;5369;49.586;8.646;2023-07-16T07:49:20;21.80;72.00
10642;DHT22;5369;49.586;8.646;2023-07-16T07:51:46;21.70;70.90
10642;DHT22;5369;49.586;8.646;2023-07-16T07:54:15;21.70;71.00
10642;DHT22;5369;49.586;8.646;2023-07-16T07:56:40;21.70;70.30
10642;DHT22;5369;49.586;8.646;2023-07-16T07:59:06;21.80;69.10
10642;DHT22;5369;49.586;8.646;2023-07-16T08:01:32;21.90;68.60
10642;DHT22;5369;49.586;8.646;2023-07-16T08:03:58;21.90;68.60
10642;DHT22;5369;49.586;8.646;2023-07-16T08:06:24;22.00;66.10
10642;DHT22;5369;49.586;8.646;2023-07-16T08:08:49;22.00;66.60
10642;DHT22;5369;49.586;8.646;2023-07-16T08:11:15;22.20;66.90
10642;DHT22;5369;49.586;8.646;2023-07-16T08:13:41;22.30;66.20
10642;DHT22;5369;49.586;8.646;2023-07-16T08:16:07;22.50;66.40
10642;DHT22;5369;49.586;8.646;2023-07-16T08:18:33;22.50;65.00
10642;DHT22;5369;49.586;8.646;2023-07-16T08:20:58;22.50;64.10
10642;DHT22;5369;49.586;8.646;2023-07-16T08:23:24;22.50;64.50
10642;DHT22;5369;49.586;8.646;2023-07-16T08:25:50;22.40;64.10
10642;DHT22;5369;49.586;8.646;2023-07-16T08:28:16;22.40;63.70
10642;DHT22;5369;49.586;8.646;2023-07-16T08:30:42;22.20;63.20
10642;DHT22;5369;49.586;8.646;2023-07-16T08:33:11;22.20;64.00
10642;DHT22;5369;49.586;8.646;2023-07-16T08:35:37;22.30;64.40
10642;DHT22;5369;49.586;8.646;2023-07-16T08:38:04;22.30;65.10
10642;DHT22;5369;49.586;8.646;2023-07-16T08:40:34;22.50;66.30
10642;DHT22;5369;49.586;8.646;2023-07-16T08:43:00;22.60;66.90
10642;DHT22;5369;49.586;8.646;2023-07-16T08:45:29;22.70;67.40
10642;DHT22;5369;49.586;8.646;2023-07-16T08:47:55;22.80;64.70
10642;DHT22;5369;49.586;8.646;2023-07-16T08:50:24;22.90;63.90
10642;DHT22;5369;49.586;8.646;2023-07-16T08:52:50;23.00;63.10
10642;DHT22;5369;49.586;8.646;2023-07-16T08:55:17;23.10;62.20
10642;DHT22;5369;49.586;8.646;2023-07-16T08:57:43;23.20;61.80
10642;DHT22;5369;49.586;8.646;2023-07-16T09:00:09;23.30;62.20
10642;DHT22;5369;49.586;8.646;2023-07-16T09:02:35;23.30;62.80
10642;DHT22;5369;49.586;8.646;2023-07-16T09:05:02;23.20;62.70
10642;DHT22;5369;49.586;8.646;2023-07-16T09:07:29;23.20;63.00
10642;DHT22;5369;49.586;8.646;2023-07-16T09:09:56;23.20;61.90
10642;DHT22;5369;49.586;8.646;2023-07-16T09:12:24;23.10;62.50
10642;DHT22;5369;49.586;8.646;2023-07-16T09:14:50;23.20;62.20
10642;DHT22;5369;49.586;8.646;2023-07-16T09:17:27;23.40;62.10
10642;DHT22;5369;49.586;8.646;2023-07-16T09:20:01;23.60;62.10
10642;DHT22;5369;49.586;8.646;2023-07-16T09:22:32;23.50;61.00
10642;DHT22;5369;49.586;8.646;2023-07-16T09:25:00;23.50;61.20
10642;DHT22;5369;49.586;8.646;2023-07-16T09:27:30;23.50;59.10
10642;DHT22;5369;49.586;8.646;2023-07-16T09:29:56;23.40;60.20
10642;DHT22;5369;49.586;8.646;2023-07-16T09:32:22;23.50;61.20
10642;DHT22;5369;49.586;8.646;2023-07-16T09:34:50;23.60;62.30
10642;DHT22;5369;49.586;8.646;2023-07-16T09:37:18;23.70;60.60
10642;DHT22;5369;49.586;8.646;2023-07-16T09:39:46;23.80;60.70
10642;DHT22;5369;49.586;8.646;2023-07-16T09:42:12;23.90;61.20
10642;DHT22;5369;49.586;8.646;2023-07-16T09:44:40;23.90;58.70
10642;DHT22;5369;49.586;8.646;2023-07-16T09:47:08;23.90;58.50
10642;DHT22;5369;49.586;8.646;2023-07-16T09:49:34;24.00;59.10
10642;DHT22;5369;49.586;8.646;2023-07-16T09:52:02;24.20;59.70
10642;DHT22;5369;49.586;8.646;2023-07-16T09:54:31;24.20;59.10
10642;DHT22;5369;49.586;8.646;2023-07-16T09:56:59;24.20;58.30
10642;DHT22;5369;49.586;8.646;2023-07-16T09:59:29;24.20;59.10
10642;DHT22;5369;49.586;8.646;2023-07-16T10:01:55;24.20;58.30
10642;DHT22;5369;49.586;8.646;2023-07-16T10:04:22;24.40;58.00
10642;DHT22;5369;49.586;8.646;2023-07-16T10:06:55;24.50;57.70
10642;DHT22;5369;49.586;8.646;2023-07-16T10:09:41;24.50;57.30
10642;DHT22;5369;49.586;8.646;2023-07-16T10:12:14;24.60;56.90
10642;DHT22;5369;49.586;8.646;2023-07-16T10:14:42;24.70;56.50
10642;DHT22;5369;49.586;8.646;2023-07-16T10:17:23;24.80;56.40
10642;DHT22;5369;49.586;8.646;2023-07-16T10:19:55;25.10;56.00
10642;DHT22;5369;49.586;8.646;2023-07-16T10:22:32;25.40;55.40
10642;DHT22;5369;49.586;8.646;2023-07-16T10:24:59;25.40;54.20
10642;DHT22;5369;49.586;8.646;2023-07-16T10:27:29;25.40;53.50
10642;DHT22;5369;49.586;8.646;2023-07-16T10:29:54;25.60;53.50
10642;DHT22;5369;49.586;8.646;2023-07-16T10:32:20;25.60;53.20
10642;DHT22;5369;49.586;8.646;2023-07-16T10:34:46;25.50;53.10
10642;DHT22;5369;49.586;8.646;2023-07-16T10:37:12;25.60;53.50
10642;DHT22;5369;49.586;8.646;2023-07-16T10:39:52;25.70;53.80
10642;DHT22;5369;49.586;8.646;2023-07-16T10:42:20;25.80;53.30
10642;DHT22;5369;49.586;8.646;2023-07-16T10:44:49;26.00;53.00
10642;DHT22;5369;49.586;8.646;2023-07-16T10:47:33;26.20;53.20
10642;DHT22;5369;49.586;8.646;2023-07-16T10:50:00;26.10;52.20
10642;DHT22;5369;49.586;8.646;2023-07-16T10:52:26;26.20;53.10
10642;DHT22;5369;49.586;8.646;2023-07-16T10:54:52;26.20;52.10
10642;DHT22;5369;49.586;8.646;2023-07-16T10:57:24;26.10;52.60
10642;DHT22;5369;49.586;8.646;2023-07-16T10:59:55;26.00;52.10
10642;DHT22;5369;49.586;8.646;2023-07-16T11:02:22;26.10;52.40
10642;DHT22;5369;49.586;8.646;2023-07-16T11:04:49;26.10;52.60
10642;DHT22;5369;49.586;8.646;2023-07-16T11:07:16;26.10;52.00
10642;DHT22;5369;49.586;8.646;2023-07-16T11:09:47;26.10;52.00
10642;DHT22;5369;49.586;8.646;2023-07-16T11:12:23;26.30;51.80
10642;DHT22;5369;49.586;8.646;2023-07-16T11:14:52;26.50;51.50
10642;DHT22;5369;49.586;8.646;2023-07-16T11:17:19;26.40;52.20
10642;DHT22;5369;49.586;8.646;2023-07-16T11:19:51;26.50;51.90
10642;DHT22;5369;49.586;8.646;2023-07-16T11:22:17;26.30;51.10
10642;DHT22;5369;49.586;8.646;2023-07-16T11:24:49;26.20;50.80
10642;DHT22;5369;49.586;8.646;2023-07-16T11:27:18;26.10;51.10
10642;DHT22;5369;49.586;8.646;2023-07-16T11:29:57;25.90;51.50
10642;DHT22;5369;49.586;8.646;2023-07-16T11:32:46;26.10;50.50
10642;DHT22;5369;49.586;8.646;2023-07-16T11:35:17;26.60;50.90
10642;DHT22;5369;49.586;8.646;2023-07-16T11:37:44;26.80;50.90
10642;DHT22;5369;49.586;8.646;2023-07-16T11:40:11;27.10;50.20
10642;DHT22;5369;49.586;8.646;2023-07-16T11:42:40;27.20;49.50
10642;DHT22;5369;49.586;8.646;2023-07-16T11:45:19;27.20;49.30
10642;DHT22;5369;49.586;8.646;2023-07-16T11:47:45;27.20;48.20
10642;DHT22;5369;49.586;8.646;2023-07-16T11:50:11;27.70;49.10
10642;DHT22;5369;49.586;8.646;2023-07-16T11:52:38;28.10;47.00
10642;DHT22;5369;49.586;8.646;2023-07-16T11:55:04;28.40;46.70
10642;DHT22;5369;49.586;8.646;2023-07-16T11:57:30;28.70;46.10
10642;DHT22;5369;49.586;8.646;2023-07-16T11:59:57;29.00;45.40
10642;DHT22;5369;49.586;8.646;2023-07-16T12:02:23;29.60;45.00
10642;DHT22;5369;49.586;8.646;2023-07-16T12:04:50;30.10;44.10
10642;DHT22;5369;49.586;8.646;2023-07-16T12:07:37;30.40;43.20
10642;DHT22;5369;49.586;8.646;2023-07-16T12:10:05;30.90;42.90
10642;DHT22;5369;49.586;8.646;2023-07-16T12:12:33;31.30;42.50
10642;DHT22;5369;49.586;8.646;2023-07-16T12:15:02;31.40;42.70
10642;DHT22;5369;49.586;8.646;2023-07-16T12:19:54;31.70;41.90
10642;DHT22;5369;49.586;8.646;2023-07-16T12:22:19;30.60;42.40
10642;DHT22;5369;49.586;8.646;2023-07-16T12:24:46;30.80;42.80
10642;DHT22;5369;49.586;8.646;2023-07-16T12:27:13;31.40;42.10
10642;DHT22;5369;49.586;8.646;2023-07-16T12:29:39;32.00;40.90
10642;DHT22;5369;49.586;8.646;2023-07-16T12:32:05;32.50;40.60
10642;DHT22;5369;49.586;8.646;2023-07-16T12:34:31;32.80;39.70
10642;DHT22;5369;49.586;8.646;2023-07-16T12:36:57;32.80;39.50
10642;DHT22;5369;49.586;8.646;2023-07-16T12:39:23;33.00;39.30
10642;DHT22;5369;49.586;8.646;2023-07-16T12:41:49;33.20;39.00
10642;DHT22;5369;49.586;8.646;2023-07-16T12:44:15;33.30;39.30
10642;DHT22;5369;49.586;8.646;2023-07-16T12:46:41;33.30;39.00
10642;DHT22;5369;49.586;8.646;2023-07-16T12:49:06;32.30;39.10
10642;DHT22;5369;49.586;8.646;2023-07-16T12:51:32;32.40;39.10
10642;DHT22;5369;49.586;8.646;2023-07-16T12:53:58;33.00;39.30
10642;DHT22;5369;49.586;8.646;2023-07-16T12:56:25;33.50;39.10
10642;DHT22;5369;49.586;8.646;2023-07-16T12:58:51;34.40;37.60
10642;DHT22;5369;49.586;8.646;2023-07-16T13:01:17;34.90;37.80
10642;DHT22;5369;49.586;8.646;2023-07-16T13:03:42;35.20;37.20
10642;DHT22;5369;49.586;8.646;2023-07-16T13:06:08;35.50;36.70
10642;DHT22;5369;49.586;8.646;2023-07-16T13:08:34;35.70;36.10
10642;DHT22;5369;49.586;8.646;2023-07-16T13:11:01;35.70;35.20
10642;DHT22;5369;49.586;8.646;2023-07-16T21:58:24;35.90;35.70
10642;DHT22;5369;49.586;8.646;2023-07-16T22:00:49;22.30;60.20
10642;DHT22;5369;49.586;8.646;2023-07-16T22:03:15;21.80;60.40
10642;DHT22;5369;49.586;8.646;2023-07-16T22:05:41;21.80;60.00
10642;DHT22;5369;49.586;8.646;2023-07-16T22:08:06;21.80;59.90
10642;DHT22;5369;49.586;8.646;2023-07-16T22:10:32;21.80;60.00
10642;DHT22;5369;49.586;8.646;2023-07-16T22:12:58;21.80;60.10
10642;DHT22;5369;49.586;8.646;2023-07-16T22:15:30;21.70;60.90
10642;DHT22;5369;49.586;8.646;2023-07-16T22:17:56;21.60;60.90
10642;DHT22;5369;49.586;8.646;2023-07-16T22:20:22;21.70;60.60
